createdAt,value
2023-04-26T00:02:08.298Z,6.65
2023-04-26T00:04:40.305Z,6.63
2023-04-26T00:07:13.932Z,6.62
2023-04-26T00:09:45.778Z,6.60
2023-04-26T00:12:17.479Z,6.61
2023-04-26T00:14:49.397Z,6.62
2023-04-26T00:17:21.154Z,6.66
2023-04-26T00:19:52.980Z,6.66
2023-04-26T00:22:25.607Z,6.70
2023-04-26T00:24:57.362Z,6.66
2023-04-26T00:27:29.033Z,6.61
2023-04-26T00:30:00.992Z,6.53
2023-04-26T00:32:35.408Z,6.54
2023-04-26T00:35:07.929Z,6.53
2023-04-26T00:37:39.611Z,6.46
2023-04-26T00:40:12.308Z,6.34
2023-04-26T00:42:46.764Z,6.32
2023-04-26T00:45:18.461Z,6.30
2023-04-26T00:47:51.011Z,6.24
2023-04-26T00:50:22.941Z,6.22
2023-04-26T00:52:57.273Z,6.21
2023-04-26T00:55:29.134Z,6.15
2023-04-26T00:58:01.215Z,6.10
2023-04-26T01:00:33.115Z,6.05
2023-04-26T01:03:04.926Z,6.02
2023-04-26T01:05:38.137Z,5.93
2023-04-26T01:08:10.359Z,5.90
2023-04-26T01:10:42.027Z,5.85
2023-04-26T01:13:14.992Z,5.85
2023-04-26T01:15:47.389Z,5.84
2023-04-26T01:18:19.032Z,5.79
2023-04-26T01:20:52.972Z,5.83
2023-04-26T01:23:24.716Z,5.83
2023-04-26T01:25:56.688Z,5.84
2023-04-26T01:28:28.495Z,5.83
2023-04-26T01:31:01.496Z,5.78
2023-04-26T01:33:36.005Z,5.77
2023-04-26T01:36:10.965Z,5.76
2023-04-26T01:38:42.680Z,5.76
2023-04-26T01:41:14.430Z,5.80
2023-04-26T01:43:46.105Z,5.80
2023-04-26T01:46:17.840Z,5.82
2023-04-26T01:48:49.572Z,5.85
2023-04-26T01:51:21.836Z,5.88
2023-04-26T01:53:53.748Z,5.90
2023-04-26T01:56:25.904Z,5.90
2023-04-26T01:58:59.224Z,5.90
2023-04-26T02:01:31.490Z,5.91
2023-04-26T02:04:03.294Z,5.92
2023-04-26T02:06:35.495Z,5.91
2023-04-26T02:09:09.402Z,5.88
2023-04-26T02:11:45.268Z,5.89
2023-04-26T02:14:17.165Z,5.86
2023-04-26T02:16:49.298Z,5.80
2023-04-26T02:19:21.135Z,5.76
2023-04-26T02:21:55.217Z,5.79
2023-04-26T02:24:27.439Z,5.85
2023-04-26T02:27:04.125Z,5.89
2023-04-26T02:29:44.529Z,5.95
2023-04-26T02:32:16.868Z,5.90
2023-04-26T02:34:48.600Z,5.92
2023-04-26T02:37:22.186Z,5.92
2023-04-26T02:39:53.946Z,5.93
2023-04-26T02:42:26.261Z,5.95
2023-04-26T02:44:58.035Z,5.93
2023-04-26T02:47:29.893Z,5.97
2023-04-26T02:50:01.592Z,6.05
2023-04-26T02:52:36.757Z,6.07
2023-04-26T02:55:09.799Z,6.12
2023-04-26T02:57:42.137Z,6.08
2023-04-26T03:00:17.827Z,6.07
2023-04-26T03:02:49.725Z,6.11
2023-04-26T03:05:23.273Z,6.09
2023-04-26T03:07:55.083Z,6.10
2023-04-26T03:10:26.820Z,6.08
2023-04-26T03:12:58.596Z,6.09
2023-04-26T03:15:30.988Z,6.06
2023-04-26T03:18:05.842Z,6.03
2023-04-26T03:20:37.685Z,6.06
2023-04-26T03:23:10.621Z,6.10
2023-04-26T03:25:42.453Z,6.12
2023-04-26T03:28:14.351Z,6.12
2023-04-26T03:30:46.706Z,6.10
2023-04-26T03:33:20.548Z,6.10
2023-04-26T03:35:52.310Z,6.09
2023-04-26T03:38:24.965Z,6.13
2023-04-26T03:40:57.087Z,6.16
2023-04-26T03:43:32.552Z,6.18
2023-04-26T03:46:05.825Z,6.18
2023-04-26T03:48:38.501Z,6.16
2023-04-26T03:51:10.323Z,6.17
2023-04-26T03:53:43.189Z,6.21
2023-04-26T03:56:14.938Z,6.22
2023-04-26T03:58:46.838Z,6.18
2023-04-26T04:01:21.011Z,6.13
2023-04-26T04:03:53.000Z,6.10
2023-04-26T04:06:25.364Z,6.11
2023-04-26T04:08:58.540Z,6.14
2023-04-26T04:11:30.848Z,6.11
2023-04-26T04:14:03.050Z,6.09
2023-04-26T04:16:34.767Z,6.05
2023-04-26T04:19:06.583Z,6.08
2023-04-26T04:21:38.863Z,6.10
2023-04-26T04:24:11.484Z,6.07
2023-04-26T04:26:43.625Z,6.11
2023-04-26T04:29:15.943Z,6.18
2023-04-26T04:31:48.863Z,6.13
2023-04-26T04:34:23.890Z,6.09
2023-04-26T04:36:55.764Z,6.10
2023-04-26T04:39:28.933Z,6.02
2023-04-26T04:42:01.245Z,6.01
2023-04-26T04:44:33.902Z,6.06
2023-04-26T04:47:06.172Z,6.06
2023-04-26T04:49:39.859Z,6.08
2023-04-26T04:52:11.572Z,6.13
2023-04-26T04:54:43.341Z,6.22
2023-04-26T04:57:16.666Z,6.33
2023-04-26T04:59:49.742Z,6.35
2023-04-26T05:02:21.805Z,6.34
2023-04-26T05:04:53.926Z,6.40
2023-04-26T05:07:27.943Z,6.62
2023-04-26T05:10:01.356Z,6.85
2023-04-26T05:12:33.686Z,7.06
2023-04-26T05:15:06.703Z,7.22
2023-04-26T05:17:38.791Z,7.51
2023-04-26T05:20:18.487Z,7.78
2023-04-26T05:22:50.308Z,8.05
2023-04-26T05:25:22.967Z,8.17
2023-04-26T05:28:00.474Z,8.48
2023-04-26T05:30:46.631Z,8.86
2023-04-26T05:33:26.616Z,9.23
2023-04-26T05:36:22.199Z,9.38
2023-04-26T05:38:53.847Z,9.36
2023-04-26T05:41:25.800Z,9.34
2023-04-26T05:43:58.185Z,9.65
2023-04-26T05:46:32.158Z,10.01
2023-04-26T05:49:03.877Z,10.02
2023-04-26T05:51:35.711Z,10.10
2023-04-26T05:54:07.554Z,10.27
2023-04-26T05:56:39.410Z,10.48
2023-04-26T05:59:12.272Z,10.46
2023-04-26T06:01:44.260Z,10.40
2023-04-26T06:04:16.637Z,10.44
2023-04-26T06:07:07.355Z,10.56
2023-04-26T06:09:39.149Z,10.54
2023-04-26T06:12:11.171Z,10.82
2023-04-26T06:14:46.105Z,10.97
2023-04-26T06:17:22.194Z,10.93
2023-04-26T06:19:53.967Z,10.73
2023-04-26T06:22:25.753Z,10.66
2023-04-26T06:24:57.502Z,10.73
2023-04-26T06:27:29.234Z,10.50
2023-04-26T06:30:00.986Z,10.38
2023-04-26T06:32:33.196Z,10.25
2023-04-26T06:35:05.804Z,9.99
2023-04-26T06:37:38.698Z,10.07
2023-04-26T06:40:14.027Z,10.10
2023-04-26T06:42:46.478Z,10.00
2023-04-26T06:45:37.005Z,9.92
2023-04-26T06:48:08.784Z,9.78
2023-04-26T06:50:40.565Z,9.99
2023-04-26T06:53:12.287Z,10.17
2023-04-26T06:55:44.473Z,10.64
2023-04-26T06:58:16.213Z,11.03
2023-04-26T07:00:47.983Z,10.93
2023-04-26T07:03:20.315Z,10.83
2023-04-26T07:05:52.214Z,10.58
2023-04-26T07:08:23.922Z,10.55
2023-04-26T07:10:55.601Z,10.53
2023-04-26T07:13:27.391Z,10.28
2023-04-26T07:15:59.824Z,10.46
2023-04-26T07:18:31.850Z,10.95
2023-04-26T07:21:03.631Z,11.18
2023-04-26T07:23:35.985Z,11.35
2023-04-26T07:26:07.864Z,11.25
2023-04-26T07:28:39.558Z,11.34
2023-04-26T07:31:11.309Z,11.16
2023-04-26T07:33:43.637Z,11.03
2023-04-26T07:36:15.429Z,10.96
2023-04-26T07:38:48.220Z,10.59
2023-04-26T07:41:19.918Z,10.62
2023-04-26T07:43:52.058Z,10.57
2023-04-26T07:46:25.145Z,10.41
2023-04-26T07:48:56.870Z,10.14
2023-04-26T07:51:28.631Z,10.00
2023-04-26T07:54:03.064Z,9.97
2023-04-26T07:56:34.788Z,9.93
2023-04-26T07:59:06.620Z,10.09
2023-04-26T08:01:38.972Z,10.30
2023-04-26T08:04:11.058Z,10.31
2023-04-26T08:06:45.117Z,10.82
2023-04-26T08:09:17.610Z,11.28
2023-04-26T08:11:49.415Z,11.19
2023-04-26T08:14:21.444Z,10.79
2023-04-26T08:16:53.706Z,10.54
2023-04-26T08:19:26.807Z,10.17
2023-04-26T08:21:58.985Z,9.83
2023-04-26T08:24:30.718Z,9.89
2023-04-26T08:27:02.408Z,10.23
2023-04-26T08:29:34.249Z,10.32
2023-04-26T08:32:06.065Z,10.11
2023-04-26T08:34:37.888Z,9.90
2023-04-26T08:37:10.545Z,9.65
2023-04-26T08:39:42.281Z,9.46
2023-04-26T08:42:16.897Z,9.40
2023-04-26T08:44:49.201Z,9.33
2023-04-26T08:47:24.862Z,9.22
2023-04-26T08:50:03.707Z,9.10
2023-04-26T08:52:37.045Z,8.93
2023-04-26T08:55:10.817Z,8.86
2023-04-26T08:57:50.495Z,8.82
2023-04-26T09:00:23.153Z,8.83
2023-04-26T09:02:55.077Z,8.84
2023-04-26T09:05:27.324Z,8.73
2023-04-26T09:08:05.268Z,8.79
2023-04-26T09:10:36.993Z,8.71
2023-04-26T09:13:08.736Z,8.73
2023-04-26T09:15:41.381Z,8.70
2023-04-26T09:18:23.797Z,8.74
2023-04-26T09:21:07.170Z,8.85
2023-04-26T09:23:58.102Z,8.95
2023-04-26T09:26:30.746Z,9.15
2023-04-26T09:29:17.390Z,9.33
2023-04-26T09:31:50.778Z,9.56
2023-04-26T09:34:22.462Z,10.11
2023-04-26T09:36:58.543Z,10.92
2023-04-26T09:39:33.796Z,11.49
2023-04-26T09:42:06.384Z,11.78
2023-04-26T09:44:38.357Z,11.85
2023-04-26T09:47:19.697Z,11.53
2023-04-26T09:49:52.512Z,11.34
2023-04-26T09:52:24.289Z,11.30
2023-04-26T09:54:56.106Z,11.23
2023-04-26T09:57:27.948Z,11.12
2023-04-26T10:00:00.965Z,11.03
2023-04-26T10:02:33.246Z,10.88
2023-04-26T10:05:07.335Z,10.81
2023-04-26T10:07:41.367Z,10.79
2023-04-26T10:10:13.403Z,10.98
2023-04-26T10:12:45.906Z,11.31
2023-04-26T10:15:18.688Z,11.61
2023-04-26T10:17:52.150Z,11.58
2023-04-26T10:20:28.309Z,11.44
2023-04-26T10:23:02.087Z,11.26
2023-04-26T10:25:38.891Z,11.06
2023-04-26T10:28:10.680Z,10.84
2023-04-26T10:30:56.546Z,10.49
2023-04-26T10:33:28.318Z,10.33
2023-04-26T10:36:01.366Z,10.19
2023-04-26T10:38:33.808Z,10.21
2023-04-26T10:41:31.605Z,10.31
2023-04-26T10:44:42.277Z,10.54
2023-04-26T10:47:34.448Z,10.77
2023-04-26T10:50:11.340Z,10.99
2023-04-26T10:53:04.242Z,11.20
2023-04-26T10:55:41.700Z,11.29
2023-04-26T10:58:33.586Z,11.44
2023-04-26T11:01:16.402Z,11.54
2023-04-26T11:03:58.061Z,11.26
2023-04-26T11:06:50.940Z,11.24
2023-04-26T11:09:39.739Z,11.47
2023-04-26T11:12:13.416Z,11.74
2023-04-26T11:14:48.886Z,12.10
2023-04-26T11:17:20.890Z,12.66
2023-04-26T11:19:52.679Z,12.77
2023-04-26T11:22:24.569Z,12.76
2023-04-26T11:24:56.281Z,12.69
2023-04-26T11:27:28.329Z,12.50
2023-04-26T11:30:04.428Z,12.23
2023-04-26T11:32:36.152Z,12.13
2023-04-26T11:35:08.183Z,12.11
2023-04-26T11:37:39.992Z,12.38
2023-04-26T11:40:11.966Z,12.65
2023-04-26T11:42:45.165Z,13.02
2023-04-26T11:45:16.900Z,13.43
2023-04-26T11:47:49.236Z,13.44
2023-04-26T11:50:24.001Z,13.50
2023-04-26T11:52:56.601Z,13.26
2023-04-26T11:55:33.270Z,13.01
2023-04-26T11:58:13.789Z,12.80
2023-04-26T12:00:58.535Z,12.82
2023-04-26T12:03:37.935Z,12.67
2023-04-26T12:06:09.914Z,12.49
2023-04-26T12:08:41.717Z,12.46
2023-04-26T12:11:16.602Z,12.47
2023-04-26T12:13:48.407Z,12.43
2023-04-26T12:16:26.652Z,12.44
2023-04-26T12:18:58.942Z,12.32
2023-04-26T12:21:40.045Z,12.35
2023-04-26T12:24:25.477Z,12.39
2023-04-26T12:26:57.365Z,12.39
2023-04-26T12:29:30.900Z,12.39
2023-04-26T12:32:04.119Z,12.41
2023-04-26T12:34:36.502Z,12.14
2023-04-26T12:37:10.800Z,12.04
2023-04-26T12:39:43.939Z,12.15
2023-04-26T12:42:15.907Z,12.20
2023-04-26T12:44:47.757Z,12.20
2023-04-26T12:47:19.638Z,12.28
2023-04-26T12:49:52.469Z,12.39
2023-04-26T12:52:24.389Z,12.54
2023-04-26T12:54:56.695Z,12.64
2023-04-26T12:57:28.547Z,12.75
2023-04-26T13:00:00.332Z,12.70
2023-04-26T13:02:33.961Z,12.69
2023-04-26T13:05:07.804Z,12.64
2023-04-26T13:07:42.325Z,12.70
2023-04-26T13:10:14.264Z,12.78
2023-04-26T13:12:46.304Z,12.75
2023-04-26T13:15:18.122Z,12.92
2023-04-26T13:17:50.034Z,13.20
2023-04-26T13:20:23.728Z,13.10
2023-04-26T13:22:57.448Z,13.10
2023-04-26T13:25:29.222Z,13.21
2023-04-26T13:28:01.189Z,13.28
2023-04-26T13:30:33.096Z,13.11
2023-04-26T13:33:05.911Z,12.86
2023-04-26T13:35:38.981Z,12.83
2023-04-26T13:38:11.963Z,12.75
2023-04-26T13:40:45.171Z,12.68
2023-04-26T13:43:16.957Z,12.53
2023-04-26T13:45:51.789Z,12.42
2023-04-26T13:48:23.584Z,12.38
2023-04-26T13:50:59.008Z,12.44
2023-04-26T13:53:30.698Z,12.37
2023-04-26T13:56:02.516Z,12.39
2023-04-26T13:58:34.288Z,12.35
2023-04-26T14:01:06.144Z,12.20
2023-04-26T14:03:41.800Z,12.21
2023-04-26T14:06:16.952Z,12.25
2023-04-26T14:08:49.132Z,12.34
2023-04-26T14:11:22.947Z,12.56
2023-04-26T14:13:57.655Z,12.71
2023-04-26T14:16:29.313Z,12.73
2023-04-26T14:19:02.354Z,12.71
2023-04-26T14:21:34.312Z,12.75
2023-04-26T14:24:11.884Z,12.78
2023-04-26T14:26:43.809Z,12.78
2023-04-26T14:29:15.740Z,12.77
2023-04-26T14:31:47.582Z,12.77
2023-04-26T14:34:19.262Z,12.86
2023-04-26T14:36:51.258Z,12.83
2023-04-26T14:39:24.608Z,12.83
2023-04-26T14:41:57.279Z,12.81
2023-04-26T14:44:29.341Z,12.90
2023-04-26T14:47:01.413Z,13.04
2023-04-26T14:49:33.132Z,13.08
2023-04-26T14:52:09.165Z,12.96
2023-04-26T14:54:43.924Z,12.90
2023-04-26T14:57:15.799Z,12.75
2023-04-26T14:59:48.175Z,12.73
2023-04-26T15:02:20.148Z,12.66
2023-04-26T15:04:52.058Z,12.64
2023-04-26T15:07:32.153Z,12.68
2023-04-26T15:10:08.301Z,12.80
2023-04-26T15:12:40.128Z,12.83
2023-04-26T15:15:12.069Z,12.84
2023-04-26T15:17:46.114Z,12.52
2023-04-26T15:20:19.094Z,12.28
2023-04-26T15:22:54.009Z,12.28
2023-04-26T15:25:26.414Z,12.25
2023-04-26T15:28:01.363Z,12.07
2023-04-26T15:30:33.101Z,11.83
2023-04-26T15:33:06.708Z,11.76
2023-04-26T15:35:39.079Z,11.78
2023-04-26T15:38:10.864Z,11.89
2023-04-26T15:40:50.613Z,11.99
2023-04-26T15:43:28.212Z,12.01
2023-04-26T15:45:59.782Z,11.93
2023-04-26T15:48:31.548Z,11.75
2023-04-26T15:51:05.390Z,11.72
2023-04-26T15:53:43.569Z,11.81
2023-04-26T15:56:17.901Z,11.85
2023-04-26T15:58:50.302Z,11.82
2023-04-26T16:01:25.202Z,11.88
2023-04-26T16:04:00.187Z,11.85
2023-04-26T16:06:33.309Z,11.80
2023-04-26T16:09:23.504Z,11.44
2023-04-26T16:11:58.932Z,11.37
2023-04-26T16:14:32.344Z,11.34
2023-04-26T16:17:06.105Z,11.41
2023-04-26T16:19:37.789Z,11.35
2023-04-26T16:22:09.495Z,11.20
2023-04-26T16:24:41.793Z,11.16
2023-04-26T16:27:13.697Z,11.11
2023-04-26T16:29:47.568Z,11.12
2023-04-26T16:32:19.564Z,11.15
2023-04-26T16:34:51.630Z,11.11
2023-04-26T16:37:23.326Z,11.05
2023-04-26T16:39:58.203Z,10.98
2023-04-26T16:42:30.228Z,10.99
2023-04-26T16:45:02.105Z,10.86
2023-04-26T16:47:34.299Z,10.78
2023-04-26T16:50:12.564Z,10.81
2023-04-26T16:52:47.357Z,10.84
2023-04-26T16:55:19.232Z,10.76
2023-04-26T16:57:50.951Z,10.65
2023-04-26T17:00:22.833Z,10.55
2023-04-26T17:02:55.663Z,10.55
2023-04-26T17:05:28.567Z,10.58
2023-04-26T17:08:00.445Z,10.59
2023-04-26T17:10:34.038Z,10.65
2023-04-26T17:13:07.203Z,10.63
2023-04-26T17:15:41.052Z,10.45
2023-04-26T17:18:12.942Z,10.38
2023-04-26T17:20:45.123Z,10.42
2023-04-26T17:23:16.846Z,10.41
2023-04-26T17:25:48.601Z,10.33
2023-04-26T17:28:20.342Z,10.36
2023-04-26T17:30:52.251Z,10.24
2023-04-26T17:33:24.869Z,10.14
2023-04-26T17:35:56.911Z,10.08
2023-04-26T17:38:28.732Z,10.06
2023-04-26T17:41:00.500Z,10.05
2023-04-26T17:43:36.120Z,10.01
2023-04-26T17:46:09.596Z,10.05
2023-04-26T17:48:41.405Z,10.05
2023-04-26T17:51:13.231Z,10.09
2023-04-26T17:53:45.921Z,10.01
2023-04-26T17:56:17.735Z,10.00
2023-04-26T17:58:49.414Z,9.96
2023-04-26T18:01:21.710Z,9.97
2023-04-26T18:03:53.695Z,9.85
2023-04-26T18:06:26.861Z,9.69
2023-04-26T18:08:58.649Z,9.68
2023-04-26T18:11:34.527Z,9.65
2023-04-26T18:14:06.296Z,9.54
2023-04-26T18:16:41.907Z,9.49
2023-04-26T18:19:13.671Z,9.50
2023-04-26T18:21:45.554Z,9.52
2023-04-26T18:24:17.235Z,9.51
2023-04-26T18:26:49.257Z,9.53
2023-04-26T18:29:21.099Z,9.54
2023-04-26T18:31:54.265Z,9.56
2023-04-26T18:34:28.112Z,9.49
2023-04-26T18:36:59.815Z,9.38
2023-04-26T18:39:31.706Z,9.29
2023-04-26T18:42:03.862Z,9.26
2023-04-26T18:44:35.598Z,9.27
2023-04-26T18:47:07.429Z,9.18
2023-04-26T18:49:39.493Z,9.10
2023-04-26T18:52:13.918Z,9.03
2023-04-26T18:54:45.599Z,9.08
2023-04-26T18:57:22.226Z,9.10
2023-04-26T18:59:56.535Z,9.13
2023-04-26T19:02:31.578Z,9.16
2023-04-26T19:05:07.437Z,9.14
2023-04-26T19:07:40.891Z,9.15
2023-04-26T19:10:16.503Z,9.16
2023-04-26T19:12:52.729Z,9.09
2023-04-26T19:15:24.268Z,9.08
2023-04-26T19:17:56.526Z,9.09
2023-04-26T19:20:29.652Z,9.04
2023-04-26T19:23:01.454Z,8.98
2023-04-26T19:25:33.883Z,8.99
2023-04-26T19:28:05.599Z,8.90
2023-04-26T19:30:38.122Z,8.87
2023-04-26T19:33:11.117Z,8.84
2023-04-26T19:35:42.819Z,8.83
2023-04-26T19:38:14.796Z,8.83
2023-04-26T19:40:46.943Z,8.86
2023-04-26T19:43:18.805Z,8.88
2023-04-26T19:45:50.641Z,8.88
2023-04-26T19:48:22.476Z,8.86
2023-04-26T19:50:57.240Z,8.83
2023-04-26T19:53:28.824Z,8.80
2023-04-26T19:56:01.933Z,8.79
2023-04-26T19:58:33.694Z,8.73
2023-04-26T20:01:05.850Z,8.70
2023-04-26T20:03:41.435Z,8.70
2023-04-26T20:06:14.093Z,8.73
2023-04-26T20:08:45.895Z,8.74
2023-04-26T20:11:18.510Z,8.74
2023-04-26T20:13:50.279Z,8.72
2023-04-26T20:16:22.025Z,8.73
2023-04-26T20:18:53.832Z,8.75
2023-04-26T20:21:28.976Z,8.75
2023-04-26T20:24:00.983Z,8.75
2023-04-26T20:26:35.539Z,8.76
2023-04-26T20:29:07.963Z,8.76
2023-04-26T20:31:41.242Z,8.75
2023-04-26T20:34:13.121Z,8.77
2023-04-26T20:36:44.874Z,8.75
2023-04-26T20:39:16.626Z,8.73
2023-04-26T20:41:52.486Z,8.73
2023-04-26T20:44:27.300Z,8.71
2023-04-26T20:46:59.008Z,8.69
2023-04-26T20:49:30.760Z,8.71
2023-04-26T20:52:02.509Z,8.71
2023-04-26T20:54:37.115Z,8.72
2023-04-26T20:57:08.800Z,8.70
2023-04-26T20:59:41.439Z,8.73
2023-04-26T21:02:16.086Z,8.68
2023-04-26T21:04:48.590Z,8.69
2023-04-26T21:07:20.419Z,8.70
2023-04-26T21:09:52.461Z,8.73
2023-04-26T21:12:25.444Z,8.72
2023-04-26T21:14:59.728Z,8.70
2023-04-26T21:17:31.497Z,8.70
2023-04-26T21:20:04.364Z,8.69
2023-04-26T21:22:36.335Z,8.69
2023-04-26T21:25:16.162Z,8.72
2023-04-26T21:27:48.016Z,8.72
2023-04-26T21:30:19.920Z,8.73
2023-04-26T21:32:53.718Z,8.73
2023-04-26T21:35:25.654Z,8.71
2023-04-26T21:37:57.414Z,8.71
2023-04-26T21:40:30.096Z,8.71
2023-04-26T21:43:05.168Z,8.71
2023-04-26T21:45:38.317Z,8.69
2023-04-26T21:48:10.432Z,8.68
2023-04-26T21:50:42.193Z,8.70
2023-04-26T21:53:13.968Z,8.67
2023-04-26T21:55:51.583Z,8.66
2023-04-26T21:58:23.445Z,8.65
2023-04-26T22:00:55.304Z,8.66
2023-04-26T22:03:30.052Z,8.62
2023-04-26T22:06:02.175Z,8.61
2023-04-26T22:08:37.172Z,8.60
2023-04-26T22:11:08.917Z,8.58
2023-04-26T22:13:40.619Z,8.57
2023-04-26T22:16:12.364Z,8.56
2023-04-26T22:18:44.642Z,8.54
2023-04-26T22:21:16.416Z,8.47
2023-04-26T22:23:48.119Z,8.41
2023-04-26T22:26:19.949Z,8.41
2023-04-26T22:28:51.597Z,8.41
2023-04-26T22:31:23.378Z,8.39
2023-04-26T22:33:55.261Z,8.39
2023-04-26T22:36:27.025Z,8.33
2023-04-26T22:39:01.930Z,8.32
2023-04-26T22:41:33.676Z,8.31
2023-04-26T22:44:05.797Z,8.31
2023-04-26T22:46:37.531Z,8.22
2023-04-26T22:49:09.426Z,8.20
2023-04-26T22:51:46.011Z,8.20
2023-04-26T22:54:28.533Z,8.20
2023-04-26T22:57:00.476Z,8.18
2023-04-26T22:59:34.359Z,8.18
2023-04-26T23:02:07.582Z,8.12
2023-04-26T23:04:39.662Z,8.11
2023-04-26T23:07:11.462Z,8.14
2023-04-26T23:09:43.238Z,8.11
2023-04-26T23:12:20.119Z,8.06
2023-04-26T23:14:58.813Z,8.03
2023-04-26T23:17:32.186Z,8.01
2023-04-26T23:20:13.330Z,8.06
2023-04-26T23:22:45.359Z,8.06
2023-04-26T23:25:19.713Z,8.02
2023-04-26T23:27:51.959Z,8.01
2023-04-26T23:30:23.689Z,8.00
2023-04-26T23:32:55.704Z,8.00
2023-04-26T23:35:27.421Z,8.02
2023-04-26T23:37:59.341Z,8.03
2023-04-26T23:40:33.786Z,8.01
2023-04-26T23:43:06.295Z,7.94
2023-04-26T23:45:37.974Z,7.93
2023-04-26T23:48:10.089Z,7.93
2023-04-26T23:50:42.162Z,7.95
2023-04-26T23:53:14.975Z,7.90
2023-04-26T23:55:47.326Z,7.78
2023-04-26T23:58:19.107Z,7.73
